Alta Loma, Texas
Current Conditions -  °F | °C
As of 10:28 AM on Saturday 22 Nov 2014 (Local Time) from KGLS Reporting Station
Broken Clouds Broken Clouds  
Wind Chill: 65°   Ceiling: 800
Heat Index: 65°   Visibility: 10mi
Dew Point: 63°   Wind: 15mph
Humidity: 93%   Direction: 100°E
Pressure: 30.05"   Gusts: NA
Location:  29.359°N, 95.0861°W
Report Text: KGLS 221628Z 10013KT 10SM BKN008 BKN017 18/17 A3005 RMK AO2 T01830172
Loading
Personal Weather Stations






























Interactive Weather Map New forecast layout! Learn more

10-Day Weather Forecast

Advertisements
Track Severe Weather on mobile